createdAt,value
2018-05-31T00:00:00.496Z,20.24
2018-05-31T00:00:04.577Z,20.24
2018-05-31T00:00:08.866Z,20.24
2018-05-31T00:00:13.132Z,20.24
2018-05-31T00:00:17.394Z,20.23
2018-05-31T00:00:21.640Z,20.23
2018-05-31T00:00:25.775Z,20.22
2018-05-31T00:00:30.032Z,20.22
2018-05-31T00:00:34.189Z,20.22
2018-05-31T00:00:38.218Z,20.22
2018-05-31T00:00:42.487Z,20.21
2018-05-31T00:00:46.865Z,20.21
2018-05-31T00:00:51.162Z,20.2
2018-05-31T00:00:55.432Z,20.2
2018-05-31T00:00:59.892Z,20.2
2018-05-31T00:01:05.845Z,20.19
2018-05-31T00:01:10.107Z,20.19
2018-05-31T00:01:14.380Z,20.18
2018-05-31T00:01:18.637Z,20.18
2018-05-31T00:01:22.667Z,20.18
2018-05-31T00:01:26.938Z,20.18
2018-05-31T00:01:31.204Z,20.17
2018-05-31T00:01:35.596Z,20.17
2018-05-31T00:01:39.873Z,20.16
2018-05-31T00:01:44.133Z,20.16
2018-05-31T00:01:48.524Z,20.16
2018-05-31T00:01:52.780Z,20.14
2018-05-31T00:01:56.955Z,20.15
2018-05-31T00:02:00.985Z,20.15
2018-05-31T00:02:05.138Z,20.15
2018-05-31T00:02:10.819Z,20.13
2018-05-31T00:02:15.766Z,20.13
2018-05-31T00:02:20.043Z,20.12
2018-05-31T00:02:24.302Z,20.13
2018-05-31T00:02:28.552Z,20.12
2018-05-31T00:02:32.923Z,20.13
2018-05-31T00:02:37.282Z,20.12
2018-05-31T00:02:41.426Z,20.11
2018-05-31T00:02:45.576Z,20.11
2018-05-31T00:02:49.838Z,20.1
2018-05-31T00:02:54.124Z,20.1
2018-05-31T00:02:58.509Z,20.1
2018-05-31T00:03:02.905Z,20.1
2018-05-31T00:03:06.935Z,20.1
2018-05-31T00:03:11.090Z,20.09
2018-05-31T00:03:15.722Z,20.09
2018-05-31T00:03:21.812Z,20.09
2018-05-31T00:03:25.971Z,20.08
2018-05-31T00:03:30.368Z,20.08
2018-05-31T00:03:34.514Z,20.07
2018-05-31T00:03:38.893Z,20.07
2018-05-31T00:03:43.032Z,20.07
2018-05-31T00:03:47.298Z,20.07
2018-05-31T00:03:51.662Z,20.06
2018-05-31T00:03:55.959Z,20.06
2018-05-31T00:04:00.216Z,20.06
2018-05-31T00:04:04.300Z,20.07
2018-05-31T00:04:08.443Z,20.06
2018-05-31T00:04:12.596Z,20.06
2018-05-31T00:04:16.755Z,20.06
2018-05-31T00:04:21.017Z,20.06
2018-05-31T00:04:27.484Z,20.05
2018-05-31T00:04:31.657Z,20.05
2018-05-31T00:04:35.943Z,20.05
2018-05-31T00:04:40.328Z,20.04
2018-05-31T00:04:44.595Z,20.04
2018-05-31T00:04:48.980Z,20.04
2018-05-31T00:04:53.267Z,20.04
2018-05-31T00:04:57.404Z,20.03
2018-05-31T00:05:01.323Z,20.03
2018-05-31T00:05:05.489Z,20.02
2018-05-31T00:05:09.897Z,20.04
2018-05-31T00:05:13.924Z,20.03
2018-05-31T00:05:18.187Z,20.03
2018-05-31T00:05:22.463Z,20.03
2018-05-31T00:05:26.828Z,20.03
2018-05-31T00:05:32.850Z,20.01
2018-05-31T00:05:37.724Z,20.02
2018-05-31T00:05:41.887Z,20.02
2018-05-31T00:05:46.150Z,20.02
2018-05-31T00:05:50.405Z,20.01
2018-05-31T00:05:54.656Z,20
2018-05-31T00:05:58.820Z,20.01
2018-05-31T00:06:03.095Z,20
2018-05-31T00:06:07.359Z,20
2018-05-31T00:06:11.523Z,20.01
2018-05-31T00:06:15.927Z,20.01
2018-05-31T00:06:20.071Z,20
2018-05-31T00:06:24.223Z,20
2018-05-31T00:06:28.484Z,19.99
2018-05-31T00:06:32.643Z,19.99
2018-05-31T00:06:37.488Z,19.99
2018-05-31T00:06:43.309Z,19.99
2018-05-31T00:06:47.598Z,19.99
2018-05-31T00:06:52.032Z,19.98
2018-05-31T00:06:56.307Z,19.98
2018-05-31T00:07:00.668Z,19.98
2018-05-31T00:07:04.823Z,19.97
2018-05-31T00:07:08.980Z,19.98
2018-05-31T00:07:13.007Z,19.98
2018-05-31T00:07:17.140Z,19.97
2018-05-31T00:07:21.288Z,19.97
2018-05-31T00:07:25.542Z,19.97
2018-05-31T00:07:29.914Z,19.97
2018-05-31T00:07:34.180Z,19.97
2018-05-31T00:07:38.435Z,19.96
2018-05-31T00:07:42.843Z,19.96
2018-05-31T00:07:48.847Z,19.95
2018-05-31T00:07:53.117Z,19.96
2018-05-31T00:07:57.289Z,19.94
2018-05-31T00:08:01.558Z,19.94
2018-05-31T00:08:05.694Z,19.95
2018-05-31T00:08:09.845Z,19.94
2018-05-31T00:08:13.975Z,19.93
2018-05-31T00:08:18.126Z,19.93
2018-05-31T00:08:22.539Z,19.94
2018-05-31T00:08:26.812Z,19.92
2018-05-31T00:08:30.840Z,19.93
2018-05-31T00:08:35.097Z,19.93
2018-05-31T00:08:39.486Z,19.93
2018-05-31T00:08:43.745Z,19.93
2018-05-31T00:08:48.026Z,19.92
2018-05-31T00:08:52.795Z,19.92
2018-05-31T00:08:58.261Z,19.92
2018-05-31T00:09:02.397Z,19.91
2018-05-31T00:09:06.666Z,19.92
2018-05-31T00:09:10.827Z,19.91
2018-05-31T00:09:15.089Z,19.91
2018-05-31T00:09:19.355Z,19.9
2018-05-31T00:09:23.504Z,19.9
2018-05-31T00:09:27.517Z,19.9
2018-05-31T00:09:31.800Z,19.89
2018-05-31T00:09:36.069Z,19.89
2018-05-31T00:09:40.208Z,19.89
2018-05-31T00:09:44.378Z,19.88
2018-05-31T00:09:48.764Z,19.88
2018-05-31T00:09:52.678Z,19.88
2018-05-31T00:09:57.050Z,19.88
2018-05-31T00:10:03.070Z,19.87
2018-05-31T00:10:07.669Z,19.88
2018-05-31T00:10:11.825Z,19.87
2018-05-31T00:10:16.130Z,19.88
2018-05-31T00:10:20.172Z,19.87
2018-05-31T00:10:24.441Z,19.86
2018-05-31T00:10:28.596Z,19.86
2018-05-31T00:10:32.922Z,19.86
2018-05-31T00:10:37.176Z,19.86
2018-05-31T00:10:41.331Z,19.85
2018-05-31T00:10:45.702Z,19.85
2018-05-31T00:10:49.855Z,19.84
2018-05-31T00:10:54.103Z,19.84
2018-05-31T00:10:58.022Z,19.84
2018-05-31T00:11:02.405Z,19.83
2018-05-31T00:11:07.139Z,19.84
2018-05-31T00:11:13.111Z,19.83
2018-05-31T00:11:17.366Z,19.83
2018-05-31T00:11:21.741Z,19.82
2018-05-31T00:11:26.135Z,19.82
2018-05-31T00:11:30.042Z,19.82
2018-05-31T00:11:34.063Z,19.81
2018-05-31T00:11:38.439Z,19.81
2018-05-31T00:11:42.712Z,19.8
2018-05-31T00:11:47.117Z,19.8
2018-05-31T00:11:51.273Z,19.79
2018-05-31T00:11:55.323Z,19.79
2018-05-31T00:11:59.700Z,19.78
2018-05-31T00:12:03.827Z,19.79
2018-05-31T00:12:08.095Z,19.78
2018-05-31T00:12:12.243Z,19.78
2018-05-31T00:12:18.689Z,19.77
2018-05-31T00:12:22.988Z,19.77
2018-05-31T00:12:27.005Z,19.77
2018-05-31T00:12:31.166Z,19.76
2018-05-31T00:12:35.425Z,19.75
2018-05-31T00:12:39.596Z,19.76
2018-05-31T00:12:43.993Z,19.75
2018-05-31T00:12:48.260Z,19.74
2018-05-31T00:12:52.515Z,19.74
2018-05-31T00:12:56.654Z,19.74
2018-05-31T00:13:00.934Z,19.74
2018-05-31T00:13:05.230Z,19.74
2018-05-31T00:13:09.370Z,19.73
2018-05-31T00:13:13.631Z,19.72
2018-05-31T00:13:17.767Z,19.71
2018-05-31T00:13:23.264Z,19.71
2018-05-31T00:13:28.608Z,19.72
2018-05-31T00:13:32.693Z,19.7
2018-05-31T00:13:37.110Z,19.7
2018-05-31T00:13:41.030Z,19.69
2018-05-31T00:13:45.413Z,19.69
2018-05-31T00:13:49.581Z,19.68
2018-05-31T00:13:53.941Z,19.69
2018-05-31T00:13:58.323Z,19.67
2018-05-31T00:14:02.530Z,19.68
2018-05-31T00:14:06.805Z,19.67
2018-05-31T00:14:11.063Z,19.66
2018-05-31T00:14:15.444Z,19.67
2018-05-31T00:14:19.826Z,19.67
2018-05-31T00:14:24.222Z,19.66
2018-05-31T00:14:28.501Z,19.65
2018-05-31T00:14:34.323Z,19.65
2018-05-31T00:14:38.728Z,19.64
2018-05-31T00:14:43.006Z,19.63
2018-05-31T00:14:47.030Z,19.64
2018-05-31T00:14:51.054Z,19.63
2018-05-31T00:14:55.207Z,19.63
2018-05-31T00:14:59.372Z,19.62
2018-05-31T00:15:03.635Z,19.62
2018-05-31T00:15:07.920Z,19.61
2018-05-31T00:15:12.162Z,19.62
2018-05-31T00:15:16.313Z,19.61
2018-05-31T00:15:20.709Z,19.6
2018-05-31T00:15:24.849Z,19.6
2018-05-31T00:15:29.003Z,19.59
2018-05-31T00:15:33.157Z,19.6
2018-05-31T00:15:38.566Z,19.58
2018-05-31T00:15:43.494Z,19.58
2018-05-31T00:15:47.760Z,19.58
2018-05-31T00:15:51.790Z,19.57
2018-05-31T00:15:56.175Z,19.56
2018-05-31T00:16:00.483Z,19.57
2018-05-31T00:16:04.779Z,19.56
2018-05-31T00:16:08.853Z,19.55
2018-05-31T00:16:12.881Z,19.55
2018-05-31T00:16:17.156Z,19.55
2018-05-31T00:16:21.550Z,19.54
2018-05-31T00:16:25.810Z,19.54
2018-05-31T00:16:30.065Z,19.53
2018-05-31T00:16:34.103Z,19.53
2018-05-31T00:16:38.482Z,19.53
2018-05-31T00:16:42.631Z,19.52
2018-05-31T00:16:49.012Z,19.52
2018-05-31T00:16:53.181Z,19.51
2018-05-31T00:16:57.349Z,19.51
2018-05-31T00:17:01.614Z,19.5
2018-05-31T00:17:05.924Z,19.51
2018-05-31T00:17:10.193Z,19.5
2018-05-31T00:17:14.221Z,19.49
2018-05-31T00:17:18.495Z,19.49
2018-05-31T00:17:22.654Z,19.49
2018-05-31T00:17:26.954Z,19.49
2018-05-31T00:17:30.978Z,19.48
2018-05-31T00:17:35.132Z,19.47
2018-05-31T00:17:39.160Z,19.48
2018-05-31T00:17:43.185Z,19.47
2018-05-31T00:17:47.002Z,19.47
2018-05-31T00:17:51.615Z,19.45
2018-05-31T00:17:56.568Z,19.45
2018-05-31T00:18:00.596Z,19.45
2018-05-31T00:18:04.870Z,19.45
2018-05-31T00:18:09.032Z,19.45
2018-05-31T00:18:13.309Z,19.44
2018-05-31T00:18:17.702Z,19.43
2018-05-31T00:18:21.985Z,19.44
2018-05-31T00:18:26.388Z,19.42
2018-05-31T00:18:30.532Z,19.42
2018-05-31T00:18:34.702Z,19.41
2018-05-31T00:18:38.868Z,19.4
2018-05-31T00:18:43.256Z,19.4
2018-05-31T00:18:47.531Z,19.4
2018-05-31T00:18:51.810Z,19.4
2018-05-31T00:18:56.204Z,19.39
2018-05-31T00:19:02.182Z,19.38
2018-05-31T00:19:06.589Z,19.39
2018-05-31T00:19:10.971Z,19.37
2018-05-31T00:19:15.234Z,19.38
2018-05-31T00:19:19.500Z,19.37
2018-05-31T00:19:23.534Z,19.37
2018-05-31T00:19:27.795Z,19.37
2018-05-31T00:19:31.958Z,19.36
2018-05-31T00:19:36.218Z,19.35
2018-05-31T00:19:40.589Z,19.35
2018-05-31T00:19:44.751Z,19.35
2018-05-31T00:19:49.029Z,19.35
2018-05-31T00:19:53.403Z,19.34
2018-05-31T00:19:57.684Z,19.33
2018-05-31T00:20:01.959Z,19.33
2018-05-31T00:20:07.395Z,19.32
2018-05-31T00:20:12.823Z,19.31
2018-05-31T00:20:17.197Z,19.31
2018-05-31T00:20:21.449Z,19.3
2018-05-31T00:20:25.840Z,19.29
2018-05-31T00:20:30.002Z,19.3
2018-05-31T00:20:34.407Z,19.28
2018-05-31T00:20:38.789Z,19.28
2018-05-31T00:20:43.161Z,19.28
2018-05-31T00:20:47.551Z,19.28
2018-05-31T00:20:51.826Z,19.28
2018-05-31T00:20:56.079Z,19.27
2018-05-31T00:21:00.474Z,19.26
2018-05-31T00:21:04.514Z,19.26
2018-05-31T00:21:08.902Z,19.25
2018-05-31T00:21:13.576Z,19.24
2018-05-31T00:21:19.782Z,19.25
2018-05-31T00:21:24.169Z,19.24
2018-05-31T00:21:28.075Z,19.24
2018-05-31T00:21:32.101Z,19.23
2018-05-31T00:21:36.287Z,19.23
2018-05-31T00:21:40.328Z,19.23
2018-05-31T00:21:44.487Z,19.22
2018-05-31T00:21:48.889Z,19.22
2018-05-31T00:21:53.154Z,19.21
2018-05-31T00:21:57.543Z,19.21
2018-05-31T00:22:01.700Z,19.21
2018-05-31T00:22:05.981Z,19.2
2018-05-31T00:22:09.891Z,19.2
2018-05-31T00:22:14.320Z,19.19
2018-05-31T00:22:18.481Z,19.19
2018-05-31T00:22:24.860Z,19.18
2018-05-31T00:22:29.506Z,19.18
2018-05-31T00:22:33.881Z,19.17
2018-05-31T00:22:38.283Z,19.17
2018-05-31T00:22:42.539Z,19.17
2018-05-31T00:22:46.675Z,19.16
2018-05-31T00:22:50.705Z,19.16
2018-05-31T00:22:54.861Z,19.16
2018-05-31T00:22:59.003Z,19.15
2018-05-31T00:23:03.375Z,19.14
2018-05-31T00:23:07.282Z,19.14
2018-05-31T00:23:11.434Z,19.15
2018-05-31T00:23:15.817Z,19.13
2018-05-31T00:23:19.981Z,19.13
2018-05-31T00:23:24.252Z,19.13
2018-05-31T00:23:28.938Z,19.12
2018-05-31T00:23:33.964Z,19.12
2018-05-31T00:23:38.357Z,19.11
2018-05-31T00:23:42.623Z,19.1
2018-05-31T00:23:47.005Z,19.1
2018-05-31T00:23:51.266Z,19.1
2018-05-31T00:23:55.522Z,19.09
2018-05-31T00:23:59.795Z,19.09
2018-05-31T00:24:04.143Z,19.09
2018-05-31T00:24:08.538Z,19.09
2018-05-31T00:24:12.703Z,19.08
2018-05-31T00:24:16.961Z,19.08
2018-05-31T00:24:21.225Z,19.07
2018-05-31T00:24:25.615Z,19.07
2018-05-31T00:24:29.881Z,19.06
2018-05-31T00:24:34.031Z,19.06
2018-05-31T00:24:40.165Z,19.06
2018-05-31T00:24:44.641Z,19.05
2018-05-31T00:24:49.033Z,19.04
2018-05-31T00:24:53.191Z,19.04
2018-05-31T00:24:57.473Z,19.04
2018-05-31T00:25:01.777Z,19.04
2018-05-31T00:25:06.275Z,19.03
2018-05-31T00:25:10.945Z,19.02
2018-05-31T00:25:15.899Z,19.02
2018-05-31T00:25:20.272Z,19.02
2018-05-31T00:25:24.664Z,19.01
2018-05-31T00:25:29.043Z,19
2018-05-31T00:25:33.336Z,19
2018-05-31T00:25:37.371Z,18.99
2018-05-31T00:25:41.653Z,18.99
2018-05-31T00:25:48.527Z,18.98
2018-05-31T00:25:52.681Z,18.99
2018-05-31T00:25:56.930Z,18.98
2018-05-31T00:26:01.311Z,18.98
2018-05-31T00:26:05.410Z,18.98
2018-05-31T00:26:09.765Z,18.97
2018-05-31T00:26:14.054Z,18.97
2018-05-31T00:26:18.192Z,18.96
2018-05-31T00:26:22.400Z,18.96
2018-05-31T00:26:26.543Z,18.96
2018-05-31T00:26:30.562Z,18.95
2018-05-31T00:26:34.690Z,18.95
2018-05-31T00:26:38.711Z,18.94
2018-05-31T00:26:42.974Z,18.93
2018-05-31T00:26:47.116Z,18.93
2018-05-31T00:26:53.080Z,18.93
2018-05-31T00:26:58.261Z,18.93
2018-05-31T00:27:02.400Z,18.93
2018-05-31T00:27:06.538Z,18.92
2018-05-31T00:27:10.693Z,18.92
2018-05-31T00:27:14.950Z,18.92
2018-05-31T00:27:19.089Z,18.92
2018-05-31T00:27:23.233Z,18.91
2018-05-31T00:27:27.610Z,18.9
2018-05-31T00:27:31.638Z,18.9
2018-05-31T00:27:36.025Z,18.9
2018-05-31T00:27:40.278Z,18.89
2018-05-31T00:27:44.652Z,18.89
2018-05-31T00:27:48.796Z,18.89
2018-05-31T00:27:53.162Z,18.89
2018-05-31T00:27:58.087Z,18.88
2018-05-31T00:28:04.023Z,18.88
2018-05-31T00:28:08.291Z,18.88
2018-05-31T00:28:12.693Z,18.87
2018-05-31T00:28:16.845Z,18.87
2018-05-31T00:28:21.248Z,18.86
2018-05-31T00:28:25.520Z,18.86
2018-05-31T00:28:29.910Z,18.86
2018-05-31T00:28:33.961Z,18.85
2018-05-31T00:28:38.091Z,18.85
2018-05-31T00:28:42.343Z,18.85
2018-05-31T00:28:46.731Z,18.85
2018-05-31T00:28:50.991Z,18.85
2018-05-31T00:28:55.243Z,18.84
2018-05-31T00:28:59.493Z,18.83
2018-05-31T00:29:03.571Z,18.84
2018-05-31T00:29:09.881Z,18.83
2018-05-31T00:29:14.283Z,18.83
2018-05-31T00:29:18.329Z,18.82
2018-05-31T00:29:22.586Z,18.82
2018-05-31T00:29:26.854Z,18.82
2018-05-31T00:29:31.110Z,18.81
2018-05-31T00:29:35.262Z,18.81
2018-05-31T00:29:39.521Z,18.81
2018-05-31T00:29:43.907Z,18.8
2018-05-31T00:29:48.050Z,18.8
2018-05-31T00:29:52.319Z,18.79
2018-05-31T00:29:56.572Z,18.8
2018-05-31T00:30:00.711Z,18.79
2018-05-31T00:30:04.742Z,18.78
2018-05-31T00:30:08.989Z,18.78
2018-05-31T00:30:15.054Z,18.78
2018-05-31T00:30:19.747Z,18.78
2018-05-31T00:30:23.899Z,18.78
2018-05-31T00:30:27.912Z,18.78
2018-05-31T00:30:32.183Z,18.77
2018-05-31T00:30:36.460Z,18.76
2018-05-31T00:30:40.739Z,18.77
2018-05-31T00:30:44.995Z,18.76
2018-05-31T00:30:49.376Z,18.76
2018-05-31T00:30:53.780Z,18.75
2018-05-31T00:30:58.184Z,18.75
2018-05-31T00:31:02.599Z,18.75
2018-05-31T00:31:06.745Z,18.74
2018-05-31T00:31:11.017Z,18.74
2018-05-31T00:31:15.307Z,18.73
2018-05-31T00:31:19.463Z,18.74
2018-05-31T00:31:25.738Z,18.73
2018-05-31T00:31:29.993Z,18.73
2018-05-31T00:31:34.150Z,18.73
2018-05-31T00:31:38.296Z,18.72
2018-05-31T00:31:42.553Z,18.71
2018-05-31T00:31:46.824Z,18.72
2018-05-31T00:31:50.974Z,18.72
2018-05-31T00:31:54.763Z,18.71
2018-05-31T00:31:59.132Z,18.71
2018-05-31T00:32:03.038Z,18.7
2018-05-31T00:32:07.171Z,18.71
2018-05-31T00:32:11.431Z,18.7
2018-05-31T00:32:15.724Z,18.7
2018-05-31T00:32:20.095Z,18.69
2018-05-31T00:32:24.359Z,18.69
2018-05-31T00:32:29.769Z,18.69
2018-05-31T00:32:34.829Z,18.69
2018-05-31T00:32:39.252Z,18.68
2018-05-31T00:32:43.649Z,18.68
2018-05-31T00:32:47.920Z,18.68
2018-05-31T00:32:52.203Z,18.68
2018-05-31T00:32:56.465Z,18.68
2018-05-31T00:33:00.604Z,18.67
2018-05-31T00:33:04.877Z,18.67
2018-05-31T00:33:08.900Z,18.67
2018-05-31T00:33:13.052Z,18.66
2018-05-31T00:33:17.436Z,18.67
2018-05-31T00:33:21.490Z,18.66
2018-05-31T00:33:25.797Z,18.65
2018-05-31T00:33:30.181Z,18.64
2018-05-31T00:33:34.649Z,18.64
2018-05-31T00:33:40.500Z,18.64
2018-05-31T00:33:44.768Z,18.64
2018-05-31T00:33:48.918Z,18.64
2018-05-31T00:33:53.065Z,18.64
2018-05-31T00:33:57.324Z,18.64
2018-05-31T00:34:01.582Z,18.63
2018-05-31T00:34:05.732Z,18.63
2018-05-31T00:34:10.132Z,18.62
2018-05-31T00:34:14.512Z,18.62
2018-05-31T00:34:18.540Z,18.62
2018-05-31T00:34:22.570Z,18.63
2018-05-31T00:34:26.704Z,18.61
2018-05-31T00:34:30.957Z,18.61
2018-05-31T00:34:35.201Z,18.61
2018-05-31T00:34:39.595Z,18.6
2018-05-31T00:34:45.096Z,18.61
2018-05-31T00:34:50.155Z,18.61
2018-05-31T00:34:54.430Z,18.6
2018-05-31T00:34:58.575Z,18.6
2018-05-31T00:35:02.957Z,18.59
2018-05-31T00:35:07.115Z,18.59
2018-05-31T00:35:11.371Z,18.6
2018-05-31T00:35:15.515Z,18.59
2018-05-31T00:35:19.699Z,18.59
2018-05-31T00:35:23.720Z,18.58
2018-05-31T00:35:27.979Z,18.58
2018-05-31T00:35:32.243Z,18.57
2018-05-31T00:35:36.501Z,18.57
2018-05-31T00:35:40.778Z,18.57
2018-05-31T00:35:44.807Z,18.57
2018-05-31T00:35:49.635Z,18.57
2018-05-31T00:35:55.237Z,18.58
2018-05-31T00:35:59.143Z,18.56
2018-05-31T00:36:03.601Z,18.56
2018-05-31T00:36:07.876Z,18.56
2018-05-31T00:36:12.023Z,18.56
2018-05-31T00:36:16.290Z,18.56
2018-05-31T00:36:20.192Z,18.55
2018-05-31T00:36:24.573Z,18.55
2018-05-31T00:36:28.832Z,18.55
2018-05-31T00:36:33.198Z,18.55
2018-05-31T00:36:37.465Z,18.54
2018-05-31T00:36:41.739Z,18.55
2018-05-31T00:36:46.016Z,18.54
2018-05-31T00:36:50.402Z,18.54
2018-05-31T00:36:54.670Z,18.52
2018-05-31T00:37:00.279Z,18.53
2018-05-31T00:37:05.060Z,18.53
2018-05-31T00:37:09.323Z,18.52
2018-05-31T00:37:13.712Z,18.52
2018-05-31T00:37:18.104Z,18.53
2018-05-31T00:37:22.476Z,18.51
2018-05-31T00:37:26.640Z,18.52
2018-05-31T00:37:30.897Z,18.51
2018-05-31T00:37:34.965Z,18.52
2018-05-31T00:37:39.353Z,18.51
2018-05-31T00:37:43.728Z,18.52
2018-05-31T00:37:48.000Z,18.51
2018-05-31T00:37:52.181Z,18.51
2018-05-31T00:37:56.450Z,18.5
2018-05-31T00:38:00.580Z,18.51
2018-05-31T00:38:06.732Z,18.5
2018-05-31T00:38:11.928Z,18.5
2018-05-31T00:38:16.300Z,18.5
2018-05-31T00:38:20.335Z,18.5
2018-05-31T00:38:24.614Z,18.49
2018-05-31T00:38:28.517Z,18.49
2018-05-31T00:38:32.679Z,18.49
2018-05-31T00:38:36.946Z,18.49
2018-05-31T00:38:41.102Z,18.49
2018-05-31T00:38:45.358Z,18.48
2018-05-31T00:38:49.739Z,18.49
2018-05-31T00:38:54.007Z,18.48
2018-05-31T00:38:58.387Z,18.47
2018-05-31T00:39:02.636Z,18.47
2018-05-31T00:39:06.823Z,18.48
2018-05-31T00:39:12.223Z,18.48
2018-05-31T00:39:18.014Z,18.47
2018-05-31T00:39:22.464Z,18.48
2018-05-31T00:39:26.252Z,18.47
2018-05-31T00:39:30.284Z,18.47
2018-05-31T00:39:34.667Z,18.47
2018-05-31T00:39:38.577Z,18.47
2018-05-31T00:39:42.955Z,18.46
2018-05-31T00:39:47.131Z,18.46
2018-05-31T00:39:51.394Z,18.46
2018-05-31T00:39:55.528Z,18.45
2018-05-31T00:39:59.900Z,18.45
2018-05-31T00:40:04.042Z,18.46
2018-05-31T00:40:08.181Z,18.45
2018-05-31T00:40:12.473Z,18.46
2018-05-31T00:40:16.833Z,18.45
2018-05-31T00:40:23.628Z,18.45
2018-05-31T00:40:27.773Z,18.44
2018-05-31T00:40:31.925Z,18.44
2018-05-31T00:40:36.186Z,18.44
2018-05-31T00:40:40.469Z,18.44
2018-05-31T00:40:44.730Z,18.44
2018-05-31T00:40:48.759Z,18.45
2018-05-31T00:40:53.128Z,18.44
2018-05-31T00:40:57.529Z,18.43
2018-05-31T00:41:01.780Z,18.43
2018-05-31T00:41:06.173Z,18.44
2018-05-31T00:41:10.335Z,18.43
2018-05-31T00:41:14.619Z,18.43
2018-05-31T00:41:18.767Z,18.43
2018-05-31T00:41:23.147Z,18.43
2018-05-31T00:41:29.289Z,18.42
2018-05-31T00:41:33.978Z,18.43
2018-05-31T00:41:38.360Z,18.43
2018-05-31T00:41:42.717Z,18.42
2018-05-31T00:41:46.985Z,18.43
2018-05-31T00:41:51.274Z,18.42
2018-05-31T00:41:55.546Z,18.43
2018-05-31T00:41:59.933Z,18.42
2018-05-31T00:42:04.073Z,18.42
2018-05-31T00:42:08.238Z,18.42
2018-05-31T00:42:12.489Z,18.42
2018-05-31T00:42:16.624Z,18.42
2018-05-31T00:42:21.011Z,18.43
2018-05-31T00:42:25.150Z,18.42
2018-05-31T00:42:29.055Z,18.42
2018-05-31T00:42:34.606Z,18.42
2018-05-31T00:42:40.138Z,18.42
2018-05-31T00:42:44.407Z,18.42
2018-05-31T00:42:48.557Z,18.42
2018-05-31T00:42:52.823Z,18.42
2018-05-31T00:42:56.969Z,18.41
2018-05-31T00:43:01.334Z,18.42
2018-05-31T00:43:05.490Z,18.42
2018-05-31T00:43:09.538Z,18.41
2018-05-31T00:43:13.923Z,18.41
2018-05-31T00:43:18.199Z,18.4
2018-05-31T00:43:22.586Z,18.41
2018-05-31T00:43:26.950Z,18.41
2018-05-31T00:43:31.099Z,18.41
2018-05-31T00:43:35.477Z,18.4
2018-05-31T00:43:40.038Z,18.4
2018-05-31T00:43:45.849Z,18.41
2018-05-31T00:43:49.991Z,18.4
2018-05-31T00:43:54.128Z,18.4
2018-05-31T00:43:58.402Z,18.4
2018-05-31T00:44:02.646Z,18.4
2018-05-31T00:44:06.797Z,18.4
2018-05-31T00:44:10.938Z,18.4
2018-05-31T00:44:15.232Z,18.39
2018-05-31T00:44:19.490Z,18.4
2018-05-31T00:44:23.744Z,18.39
2018-05-31T00:44:28.060Z,18.4
2018-05-31T00:44:32.335Z,18.39
2018-05-31T00:44:36.700Z,18.39
2018-05-31T00:44:41.087Z,18.4
2018-05-31T00:44:45.320Z,18.4
2018-05-31T00:44:50.994Z,18.39
2018-05-31T00:44:55.693Z,18.39
2018-05-31T00:44:59.946Z,18.39
2018-05-31T00:45:03.736Z,18.4
2018-05-31T00:45:08.135Z,18.39
2018-05-31T00:45:12.281Z,18.4
2018-05-31T00:45:16.542Z,18.4
2018-05-31T00:45:20.811Z,18.39
2018-05-31T00:45:24.823Z,18.39
2018-05-31T00:45:29.123Z,18.39
2018-05-31T00:45:33.268Z,18.39
2018-05-31T00:45:37.553Z,18.39
2018-05-31T00:45:41.691Z,18.38
2018-05-31T00:45:45.948Z,18.39
2018-05-31T00:45:50.195Z,18.38
2018-05-31T00:45:55.534Z,18.39
2018-05-31T00:46:01.451Z,18.39
2018-05-31T00:46:05.710Z,18.38
2018-05-31T00:46:09.979Z,18.38
2018-05-31T00:46:14.123Z,18.39
2018-05-31T00:46:18.509Z,18.39
2018-05-31T00:46:22.779Z,18.39
2018-05-31T00:46:27.037Z,18.38
2018-05-31T00:46:31.169Z,18.39
2018-05-31T00:46:35.549Z,18.38
2018-05-31T00:46:39.933Z,18.38
2018-05-31T00:46:44.202Z,18.38
2018-05-31T00:46:48.454Z,18.37
2018-05-31T00:46:52.596Z,18.38
2018-05-31T00:46:56.754Z,18.37
2018-05-31T00:47:01.364Z,18.38
2018-05-31T00:47:07.473Z,18.38
2018-05-31T00:47:11.623Z,18.38
2018-05-31T00:47:15.768Z,18.38
2018-05-31T00:47:19.790Z,18.38
2018-05-31T00:47:24.193Z,18.38
2018-05-31T00:47:28.445Z,18.37
2018-05-31T00:47:32.595Z,18.37
2018-05-31T00:47:36.726Z,18.37
2018-05-31T00:47:40.889Z,18.38
2018-05-31T00:47:45.170Z,18.37
2018-05-31T00:47:49.335Z,18.38
2018-05-31T00:47:53.655Z,18.37
2018-05-31T00:47:57.906Z,18.37
2018-05-31T00:48:02.370Z,18.38
2018-05-31T00:48:06.634Z,18.38
2018-05-31T00:48:13.110Z,18.37
2018-05-31T00:48:17.838Z,18.36
2018-05-31T00:48:22.106Z,18.37
2018-05-31T00:48:26.362Z,18.37
2018-05-31T00:48:30.510Z,18.36
2018-05-31T00:48:34.659Z,18.37
2018-05-31T00:48:38.794Z,18.37
2018-05-31T00:48:43.230Z,18.35
2018-05-31T00:48:47.622Z,18.37
2018-05-31T00:48:51.773Z,18.36
2018-05-31T00:48:55.923Z,18.36
2018-05-31T00:49:00.170Z,18.36
2018-05-31T00:49:04.463Z,18.36
2018-05-31T00:49:08.859Z,18.36
2018-05-31T00:49:13.151Z,18.36
2018-05-31T00:49:21.258Z,18.35
2018-05-31T00:49:25.728Z,18.35
2018-05-31T00:49:29.753Z,18.35
2018-05-31T00:49:33.905Z,18.34
2018-05-31T00:49:38.298Z,18.36
2018-05-31T00:49:42.559Z,18.35
2018-05-31T00:49:46.703Z,18.34
2018-05-31T00:49:51.023Z,18.36
2018-05-31T00:49:55.284Z,18.34
2018-05-31T00:49:59.429Z,18.35
2018-05-31T00:50:03.850Z,18.35
2018-05-31T00:50:08.129Z,18.35
2018-05-31T00:50:12.410Z,18.34
2018-05-31T00:50:16.809Z,18.34
2018-05-31T00:50:21.190Z,18.34
2018-05-31T00:50:27.506Z,18.33
2018-05-31T00:50:32.286Z,18.33
2018-05-31T00:50:36.680Z,18.33
2018-05-31T00:50:40.954Z,18.33
2018-05-31T00:50:45.227Z,18.32
2018-05-31T00:50:49.603Z,18.33
2018-05-31T00:50:53.637Z,18.33
2018-05-31T00:50:58.031Z,18.33
2018-05-31T00:51:01.947Z,18.33
2018-05-31T00:51:06.208Z,18.33
2018-05-31T00:51:10.119Z,18.32
2018-05-31T00:51:14.147Z,18.32
2018-05-31T00:51:18.335Z,18.32
2018-05-31T00:51:22.828Z,18.32
2018-05-31T00:51:27.301Z,18.32
2018-05-31T00:51:32.470Z,18.33
2018-05-31T00:51:38.206Z,18.32
2018-05-31T00:51:42.357Z,18.33
2018-05-31T00:51:46.617Z,18.32
2018-05-31T00:51:50.901Z,18.32
2018-05-31T00:51:54.916Z,18.31
2018-05-31T00:51:59.287Z,18.32
2018-05-31T00:52:03.566Z,18.32
2018-05-31T00:52:07.827Z,18.32
2018-05-31T00:52:12.078Z,18.32
2018-05-31T00:52:16.231Z,18.31
2018-05-31T00:52:20.569Z,18.31
2018-05-31T00:52:24.942Z,18.31
2018-05-31T00:52:29.079Z,18.31
2018-05-31T00:52:33.439Z,18.31
2018-05-31T00:52:38.289Z,18.31
2018-05-31T00:52:44.861Z,18.31
2018-05-31T00:52:49.139Z,18.31
2018-05-31T00:52:53.417Z,18.31
2018-05-31T00:52:57.679Z,18.31
2018-05-31T00:53:01.934Z,18.31
2018-05-31T00:53:05.950Z,18.31
2018-05-31T00:53:10.335Z,18.31
2018-05-31T00:53:14.469Z,18.32
2018-05-31T00:53:18.603Z,18.31
2018-05-31T00:53:22.864Z,18.31
2018-05-31T00:53:27.120Z,18.3
2018-05-31T00:53:31.258Z,18.31
2018-05-31T00:53:35.628Z,18.31
2018-05-31T00:53:40.009Z,18.31
2018-05-31T00:53:44.153Z,18.31
2018-05-31T00:53:49.623Z,18.31
2018-05-31T00:53:54.432Z,18.31
2018-05-31T00:53:58.808Z,18.3
2018-05-31T00:54:03.320Z,18.31
2018-05-31T00:54:07.458Z,18.31
2018-05-31T00:54:11.853Z,18.31
2018-05-31T00:54:16.224Z,18.3
2018-05-31T00:54:20.486Z,18.3
2018-05-31T00:54:24.782Z,18.3
2018-05-31T00:54:29.159Z,18.31
2018-05-31T00:54:33.408Z,18.31
2018-05-31T00:54:37.663Z,18.3
2018-05-31T00:54:42.034Z,18.31
2018-05-31T00:54:46.067Z,18.3
2018-05-31T00:54:50.320Z,18.3
2018-05-31T00:54:56.431Z,18.3
2018-05-31T00:55:01.596Z,18.3
2018-05-31T00:55:05.873Z,18.3
2018-05-31T00:55:10.023Z,18.3
2018-05-31T00:55:14.322Z,18.3
2018-05-31T00:55:18.458Z,18.3
2018-05-31T00:55:22.477Z,18.29
2018-05-31T00:55:26.742Z,18.3
2018-05-31T00:55:30.884Z,18.29
2018-05-31T00:55:35.264Z,18.3
2018-05-31T00:55:39.401Z,18.29
2018-05-31T00:55:43.675Z,18.29
2018-05-31T00:55:47.929Z,18.29
2018-05-31T00:55:52.081Z,18.3
2018-05-31T00:55:56.212Z,18.3
2018-05-31T00:56:01.135Z,18.29
2018-05-31T00:56:07.181Z,18.29
2018-05-31T00:56:11.323Z,18.29
2018-05-31T00:56:15.564Z,18.29
2018-05-31T00:56:19.842Z,18.29
2018-05-31T00:56:23.858Z,18.29
2018-05-31T00:56:28.260Z,18.29
2018-05-31T00:56:32.399Z,18.29
2018-05-31T00:56:36.553Z,18.29
2018-05-31T00:56:40.569Z,18.29